createdAt,value
2018-07-10T00:02:38.624Z,2.13
2018-07-10T00:07:29.232Z,2.40
2018-07-10T00:10:24.042Z,2.00
2018-07-10T00:12:52.622Z,2.10
2018-07-10T00:15:21.693Z,2.67
2018-07-10T00:17:50.265Z,2.50
2018-07-10T00:20:18.914Z,2.47
2018-07-10T00:22:47.517Z,2.40
2018-07-10T00:25:16.078Z,2.47
2018-07-10T00:27:44.331Z,2.40
2018-07-10T00:30:12.964Z,2.13
2018-07-10T00:32:41.757Z,2.10
2018-07-10T00:35:11.878Z,1.93
2018-07-10T00:37:41.070Z,2.23
2018-07-10T00:40:09.717Z,2.07
2018-07-10T00:42:38.952Z,2.40
2018-07-10T00:45:07.590Z,2.63
2018-07-10T00:47:36.325Z,2.30
2018-07-10T00:50:04.983Z,2.03
2018-07-10T00:52:34.738Z,1.90
2018-07-10T00:55:04.190Z,1.73
2018-07-10T00:57:33.473Z,2.10
2018-07-10T01:00:03.102Z,2.67
2018-07-10T01:02:32.001Z,2.10
2018-07-10T01:05:00.697Z,2.30
2018-07-10T01:07:29.366Z,1.60
2018-07-10T01:09:58.645Z,2.13
2018-07-10T01:12:28.224Z,2.23
2018-07-10T01:14:57.046Z,1.93
2018-07-10T01:17:26.443Z,1.80
2018-07-10T01:19:55.110Z,2.07
2018-07-10T01:22:23.736Z,2.33
2018-07-10T01:24:52.808Z,2.67
2018-07-10T01:27:21.462Z,3.07
2018-07-10T01:29:50.046Z,2.63
2018-07-10T01:32:18.821Z,2.93
2018-07-10T01:34:47.371Z,3.07
2018-07-10T01:37:16.601Z,2.97
2018-07-10T01:39:45.405Z,2.63
2018-07-10T01:42:13.997Z,2.60
2018-07-10T01:44:43.237Z,2.90
2018-07-10T01:47:11.805Z,2.63
2018-07-10T01:49:40.433Z,2.40
2018-07-10T01:52:09.042Z,2.27
2018-07-10T01:54:37.626Z,2.40
2018-07-10T01:57:06.257Z,2.70
2018-07-10T01:59:35.426Z,2.67
2018-07-10T02:02:04.077Z,2.40
2018-07-10T02:04:32.960Z,2.80
2018-07-10T02:07:01.600Z,3.00
2018-07-10T02:09:30.213Z,2.37
2018-07-10T02:11:58.838Z,2.20
2018-07-10T02:14:27.663Z,2.30
2018-07-10T02:16:56.282Z,2.53
2018-07-10T02:19:24.933Z,2.47
2018-07-10T02:21:53.570Z,2.47
2018-07-10T02:24:24.284Z,2.47
2018-07-10T02:26:53.665Z,2.60
2018-07-10T02:29:22.253Z,2.70
2018-07-10T02:31:51.022Z,2.67
2018-07-10T02:34:19.670Z,3.53
2018-07-10T02:36:47.862Z,3.60
2018-07-10T02:39:16.093Z,3.03
2018-07-10T02:41:44.693Z,2.60
2018-07-10T02:44:13.548Z,2.27
2018-07-10T02:46:42.173Z,3.03
2018-07-10T02:49:16.805Z,2.90
2018-07-10T02:51:55.237Z,2.83
2018-07-10T02:54:26.299Z,2.90
2018-07-10T02:56:56.472Z,2.93
2018-07-10T02:59:37.622Z,2.70
2018-07-10T03:02:22.718Z,2.53
2018-07-10T03:05:00.122Z,2.73
2018-07-10T03:07:28.947Z,2.60
2018-07-10T03:09:58.613Z,2.70
2018-07-10T03:12:28.985Z,2.90
2018-07-10T03:15:00.602Z,3.23
2018-07-10T03:17:29.279Z,2.57
2018-07-10T03:19:59.913Z,3.00
2018-07-10T03:22:28.559Z,2.77
2018-07-10T03:24:57.973Z,2.93
2018-07-10T03:27:26.593Z,2.93
2018-07-10T03:29:55.566Z,3.00
2018-07-10T03:32:24.203Z,2.93
2018-07-10T03:34:52.806Z,2.63
2018-07-10T03:37:21.474Z,2.87
2018-07-10T03:39:50.058Z,2.90
2018-07-10T03:42:19.341Z,2.90
2018-07-10T03:44:47.577Z,3.40
2018-07-10T03:47:19.553Z,3.17
2018-07-10T03:49:48.714Z,3.07
2018-07-10T03:52:24.736Z,3.00
2018-07-10T03:54:53.613Z,3.20
2018-07-10T03:57:24.497Z,3.20
2018-07-10T03:59:55.850Z,3.37
2018-07-10T04:02:25.909Z,3.40
2018-07-10T04:04:54.965Z,3.47
2018-07-10T04:07:24.046Z,3.17
2018-07-10T04:09:54.793Z,2.50
2018-07-10T04:12:27.967Z,3.03
2018-07-10T04:14:56.565Z,3.20
2018-07-10T04:17:29.437Z,3.50
2018-07-10T04:19:58.069Z,3.17
2018-07-10T04:22:26.705Z,3.00
2018-07-10T04:24:55.187Z,3.03
2018-07-10T04:27:29.674Z,3.17
2018-07-10T04:30:14.010Z,3.40
2018-07-10T04:32:43.213Z,3.03
2018-07-10T04:35:15.431Z,2.87
2018-07-10T04:37:49.625Z,3.23
2018-07-10T04:40:19.585Z,3.23
2018-07-10T04:43:00.118Z,2.97
2018-07-10T04:45:45.262Z,3.17
2018-07-10T04:48:46.573Z,3.50
2018-07-10T04:51:28.951Z,3.27
2018-07-10T04:54:01.001Z,3.23
2018-07-10T04:56:30.089Z,3.33
2018-07-10T04:58:58.802Z,3.87
2018-07-10T05:01:31.190Z,3.97
2018-07-10T05:04:02.554Z,3.57
2018-07-10T05:06:33.741Z,3.37
2018-07-10T05:09:02.390Z,3.23
2018-07-10T05:11:34.007Z,3.27
2018-07-10T05:14:02.654Z,3.33
2018-07-10T05:16:31.294Z,3.80
2018-07-10T05:19:08.170Z,6.60
2018-07-10T05:21:36.481Z,6.33
2018-07-10T05:24:05.628Z,6.60
2018-07-10T05:26:35.025Z,8.03
2018-07-10T05:29:04.197Z,7.87
2018-07-10T05:31:32.764Z,7.97
2018-07-10T05:34:01.399Z,7.10
2018-07-10T05:36:30.045Z,6.87
2018-07-10T05:39:01.037Z,6.50
2018-07-10T05:41:29.549Z,6.07
2018-07-10T05:43:58.322Z,5.67
2018-07-10T05:46:27.099Z,4.60
2018-07-10T05:49:03.545Z,4.57
2018-07-10T05:51:34.377Z,4.60
2018-07-10T05:54:06.610Z,5.47
2018-07-10T05:56:36.804Z,5.00
2018-07-10T05:59:08.852Z,6.60
2018-07-10T06:01:38.848Z,5.43
2018-07-10T06:04:08.731Z,5.13
2018-07-10T06:06:37.347Z,5.67
2018-07-10T06:09:07.045Z,5.07
2018-07-10T06:11:36.872Z,4.87
2018-07-10T06:14:05.539Z,5.50
2018-07-10T06:16:35.921Z,6.63
2018-07-10T06:19:05.898Z,5.07
2018-07-10T06:21:39.005Z,4.40
2018-07-10T06:24:10.938Z,4.90
2018-07-10T06:26:40.457Z,4.90
2018-07-10T06:29:09.706Z,4.53
2018-07-10T06:31:50.142Z,5.07
2018-07-10T06:34:20.108Z,4.60
2018-07-10T06:36:58.994Z,6.00
2018-07-10T06:39:27.825Z,7.70
2018-07-10T06:42:04.981Z,7.07
2018-07-10T06:44:34.943Z,6.80
2018-07-10T06:47:10.569Z,9.53
2018-07-10T06:49:39.214Z,6.43
2018-07-10T06:52:09.648Z,6.00
2018-07-10T06:55:15.541Z,5.17
2018-07-10T06:57:49.571Z,6.07
2018-07-10T07:00:18.932Z,5.03
2018-07-10T07:02:47.910Z,5.13
2018-07-10T07:05:16.494Z,5.30
2018-07-10T07:07:45.696Z,5.30
2018-07-10T07:10:15.373Z,5.00
2018-07-10T07:12:44.897Z,5.83
2018-07-10T07:15:18.584Z,5.03
2018-07-10T07:17:48.786Z,5.23
2018-07-10T07:20:17.477Z,5.50
2018-07-10T07:22:46.397Z,5.80
2018-07-10T07:25:14.993Z,5.80
2018-07-10T07:27:43.588Z,5.67
2018-07-10T07:30:13.170Z,5.23
2018-07-10T07:32:42.602Z,5.53
2018-07-10T07:35:11.443Z,4.70
2018-07-10T07:37:41.278Z,4.20
2018-07-10T07:40:11.307Z,4.90
2018-07-10T07:42:40.473Z,4.50
2018-07-10T07:45:10.159Z,4.90
2018-07-10T07:47:39.282Z,4.83
2018-07-10T07:50:07.925Z,3.93
2018-07-10T07:52:36.197Z,3.87
2018-07-10T07:55:05.933Z,3.37
2018-07-10T07:57:34.838Z,3.63
2018-07-10T08:00:04.041Z,3.17
2018-07-10T08:02:32.471Z,8.63
2018-07-10T08:05:01.099Z,2.60
2018-07-10T08:07:29.682Z,2.67
2018-07-10T08:09:58.955Z,2.50
2018-07-10T08:12:28.704Z,2.70
2018-07-10T08:14:59.823Z,2.67
2018-07-10T08:17:28.997Z,2.70
2018-07-10T08:19:58.683Z,2.70
2018-07-10T08:22:27.878Z,2.50
2018-07-10T08:24:56.585Z,2.23
2018-07-10T08:27:26.157Z,2.00
2018-07-10T08:29:55.730Z,2.17
2018-07-10T08:32:27.013Z,2.33
2018-07-10T08:34:55.798Z,2.33
2018-07-10T08:37:24.442Z,3.00
2018-07-10T08:39:52.676Z,1.90
2018-07-10T08:42:21.328Z,2.33
2018-07-10T08:44:50.010Z,2.07
2018-07-10T08:47:18.701Z,2.30
2018-07-10T08:49:47.797Z,2.03
2018-07-10T08:52:16.501Z,2.10
2018-07-10T08:54:45.191Z,2.03
2018-07-10T08:57:13.873Z,1.97
2018-07-10T08:59:42.694Z,2.20
2018-07-10T09:02:19.546Z,2.30
2018-07-10T09:04:48.822Z,2.00
2018-07-10T09:07:17.508Z,1.90
2018-07-10T09:09:47.708Z,2.23
2018-07-10T09:12:15.981Z,2.17
2018-07-10T09:14:44.205Z,2.13
2018-07-10T09:17:12.829Z,1.60
2018-07-10T09:19:41.785Z,1.60
2018-07-10T09:22:12.831Z,1.70
2018-07-10T09:24:54.912Z,1.70
2018-07-10T09:27:24.566Z,1.83
2018-07-10T09:29:53.296Z,1.60
2018-07-10T09:32:27.720Z,1.30
2018-07-10T09:34:57.496Z,1.43
2018-07-10T09:37:32.358Z,1.43
2018-07-10T09:40:08.023Z,1.70
2018-07-10T09:42:40.469Z,1.63
2018-07-10T09:45:08.688Z,1.40
2018-07-10T09:47:37.317Z,1.50
2018-07-10T09:50:06.024Z,1.50
2018-07-10T09:52:34.853Z,1.33
2018-07-10T09:55:04.020Z,1.40
2018-07-10T09:57:33.080Z,1.60
2018-07-10T10:00:02.572Z,1.37
2018-07-10T10:02:31.986Z,1.80
2018-07-10T10:05:02.106Z,1.70
2018-07-10T10:07:32.189Z,1.43
2018-07-10T10:10:01.834Z,1.57
2018-07-10T10:12:30.905Z,1.87
2018-07-10T10:15:29.682Z,1.53
2018-07-10T10:17:59.161Z,1.50
2018-07-10T10:20:27.476Z,1.30
2018-07-10T10:22:56.112Z,1.30
2018-07-10T10:25:25.524Z,1.90
2018-07-10T10:27:53.771Z,1.83
2018-07-10T10:30:22.641Z,1.70
2018-07-10T10:32:51.100Z,1.63
2018-07-10T10:35:19.915Z,1.90
2018-07-10T10:37:48.533Z,2.00
2018-07-10T10:40:17.313Z,2.30
2018-07-10T10:42:46.586Z,1.97
2018-07-10T10:45:15.341Z,2.00
2018-07-10T10:47:44.213Z,1.80
2018-07-10T10:50:12.843Z,1.63
2018-07-10T10:52:41.484Z,1.80
2018-07-10T10:55:09.723Z,1.57
2018-07-10T10:57:39.696Z,2.10
2018-07-10T11:00:09.053Z,2.00
2018-07-10T11:02:37.788Z,1.27
2018-07-10T11:05:06.874Z,1.50
2018-07-10T11:07:36.916Z,1.40
2018-07-10T11:10:05.562Z,1.20
2018-07-10T11:12:34.217Z,1.43
2018-07-10T11:15:04.943Z,1.40
2018-07-10T11:17:40.246Z,1.40
2018-07-10T11:20:13.725Z,1.30
2018-07-10T11:22:56.475Z,1.33
2018-07-10T11:25:27.049Z,1.40
2018-07-10T11:28:05.503Z,1.37
2018-07-10T11:30:34.495Z,1.33
2018-07-10T11:33:04.469Z,1.10
2018-07-10T11:35:33.875Z,1.30
2018-07-10T11:38:05.965Z,1.30
2018-07-10T11:40:35.806Z,1.50
2018-07-10T11:43:06.894Z,1.40
2018-07-10T11:45:35.732Z,1.60
2018-07-10T11:48:04.317Z,1.43
2018-07-10T11:50:32.944Z,1.80
2018-07-10T11:53:01.553Z,1.60
2018-07-10T11:55:30.421Z,1.50
2018-07-10T11:57:59.309Z,1.77
2018-07-10T12:00:28.523Z,1.80
2018-07-10T12:02:57.411Z,1.90
2018-07-10T12:05:26.635Z,1.70
2018-07-10T12:07:57.944Z,1.50
2018-07-10T12:10:31.983Z,1.50
2018-07-10T12:13:00.609Z,1.50
2018-07-10T12:15:29.255Z,1.73
2018-07-10T12:17:58.967Z,1.70
2018-07-10T12:20:34.631Z,1.80
2018-07-10T12:23:05.785Z,1.80
2018-07-10T12:25:37.374Z,1.70
2018-07-10T12:28:08.086Z,1.97
2018-07-10T12:30:37.476Z,1.90
2018-07-10T12:33:07.922Z,1.73
2018-07-10T12:35:36.614Z,2.00
2018-07-10T12:38:05.271Z,1.70
2018-07-10T12:40:34.348Z,1.70
2018-07-10T12:43:03.577Z,1.80
2018-07-10T12:45:31.817Z,1.30
2018-07-10T12:48:00.499Z,1.70
2018-07-10T12:50:30.930Z,1.10
2018-07-10T12:53:00.457Z,1.23
2018-07-10T12:55:39.154Z,1.33
2018-07-10T12:58:08.638Z,1.37
2018-07-10T13:00:38.940Z,1.53
2018-07-10T13:03:07.536Z,1.40
2018-07-10T13:05:44.056Z,1.40
2018-07-10T13:08:14.650Z,1.40
2018-07-10T13:10:43.733Z,1.30
2018-07-10T13:13:13.370Z,1.40
2018-07-10T13:15:42.077Z,1.47
2018-07-10T13:18:11.364Z,1.53
2018-07-10T13:20:40.477Z,1.53
2018-07-10T13:23:09.350Z,1.47
2018-07-10T13:25:38.016Z,1.33
2018-07-10T13:28:06.970Z,1.37
2018-07-10T13:30:35.204Z,1.30
2018-07-10T13:33:04.955Z,0.83
2018-07-10T13:35:35.094Z,1.10
2018-07-10T13:38:04.026Z,1.00
2018-07-10T13:40:33.926Z,1.40
2018-07-10T13:43:02.789Z,0.90
2018-07-10T13:45:31.923Z,0.97
2018-07-10T13:48:01.961Z,1.20
2018-07-10T13:50:32.115Z,1.50
2018-07-10T13:53:02.001Z,3.00
2018-07-10T13:55:31.461Z,1.33
2018-07-10T13:58:14.034Z,1.67
2018-07-10T14:00:44.814Z,1.60
2018-07-10T14:03:13.392Z,1.50
2018-07-10T14:05:43.059Z,1.60
2018-07-10T14:08:11.670Z,1.60
2018-07-10T14:10:40.082Z,1.60
2018-07-10T14:13:08.665Z,1.50
2018-07-10T14:15:37.583Z,1.30
2018-07-10T14:18:06.676Z,1.13
2018-07-10T14:20:46.827Z,1.70
2018-07-10T14:23:16.462Z,1.23
2018-07-10T14:25:45.057Z,1.40
2018-07-10T14:28:14.449Z,1.33
2018-07-10T14:30:43.069Z,1.00
2018-07-10T14:33:12.109Z,1.40
2018-07-10T14:35:40.729Z,1.67
2018-07-10T14:38:10.462Z,1.50
2018-07-10T14:40:44.246Z,1.20
2018-07-10T14:43:14.914Z,1.30
2018-07-10T14:45:44.578Z,1.43
2018-07-10T14:48:13.227Z,1.30
2018-07-10T14:50:41.865Z,1.30
2018-07-10T14:53:10.643Z,1.47
2018-07-10T14:55:39.501Z,1.63
2018-07-10T14:58:08.570Z,1.30
2018-07-10T15:00:37.210Z,1.47
2018-07-10T15:03:05.842Z,1.43
2018-07-10T15:05:34.445Z,1.10
2018-07-10T15:08:03.136Z,1.20
2018-07-10T15:10:31.729Z,1.40
2018-07-10T15:13:01.511Z,1.50
2018-07-10T15:15:30.167Z,1.50
2018-07-10T15:18:04.447Z,1.50
2018-07-10T15:20:33.489Z,1.30
2018-07-10T15:23:04.289Z,1.40
2018-07-10T15:25:32.851Z,1.67
2018-07-10T15:28:01.778Z,1.90
2018-07-10T15:30:30.542Z,1.40
2018-07-10T15:32:59.850Z,1.60
2018-07-10T15:35:28.451Z,1.30
2018-07-10T15:37:58.417Z,1.30
2018-07-10T15:40:27.055Z,1.40
2018-07-10T15:42:56.049Z,1.70
2018-07-10T15:45:24.682Z,1.30
2018-07-10T15:47:54.505Z,1.30
2018-07-10T15:50:23.163Z,1.40
2018-07-10T15:52:51.403Z,1.37
2018-07-10T15:55:20.027Z,1.27
2018-07-10T15:57:48.368Z,1.87
2018-07-10T16:00:17.721Z,1.40
2018-07-10T16:02:46.342Z,1.30
2018-07-10T16:05:15.650Z,1.30
2018-07-10T16:07:44.258Z,1.30
2018-07-10T16:10:13.742Z,1.17
2018-07-10T16:12:42.775Z,1.40
2018-07-10T16:15:11.114Z,0.90
2018-07-10T16:17:39.765Z,1.30
2018-07-10T16:20:10.142Z,1.10
2018-07-10T16:22:40.850Z,1.10
2018-07-10T16:25:41.592Z,1.00
2018-07-10T16:28:14.481Z,1.03
2018-07-10T16:30:43.118Z,1.07
2018-07-10T16:33:13.795Z,1.10
2018-07-10T16:35:43.059Z,0.90
2018-07-10T16:38:11.678Z,0.93
2018-07-10T16:40:40.305Z,1.17
2018-07-10T16:43:14.185Z,1.10
2018-07-10T16:45:42.903Z,0.90
2018-07-10T16:48:46.505Z,1.07
2018-07-10T16:51:22.587Z,0.83
2018-07-10T16:53:55.729Z,1.00
2018-07-10T16:56:25.057Z,1.00
2018-07-10T16:58:55.335Z,0.80
2018-07-10T17:01:25.351Z,0.80
2018-07-10T17:03:54.745Z,0.80
2018-07-10T17:06:24.623Z,0.90
2018-07-10T17:08:53.317Z,1.00
2018-07-10T17:11:21.552Z,1.00
2018-07-10T17:13:50.118Z,0.73
2018-07-10T17:16:24.292Z,0.80
2018-07-10T17:18:52.504Z,0.70
2018-07-10T17:21:21.162Z,1.00
2018-07-10T17:23:51.219Z,0.90
2018-07-10T17:26:19.846Z,0.90
2018-07-10T17:28:48.447Z,1.00
2018-07-10T17:31:16.705Z,0.80
2018-07-10T17:33:45.958Z,1.20
2018-07-10T17:36:14.600Z,0.90
2018-07-10T17:38:42.828Z,0.73
2018-07-10T17:41:12.118Z,0.90
2018-07-10T17:43:40.976Z,1.00
2018-07-10T17:46:09.158Z,0.90
2018-07-10T17:48:37.839Z,1.03
2018-07-10T17:51:06.213Z,1.00
2018-07-10T17:53:34.462Z,1.20
2018-07-10T17:56:03.020Z,0.87
2018-07-10T17:58:31.793Z,1.20
2018-07-10T18:01:00.556Z,1.07
2018-07-10T18:03:29.200Z,1.10
2018-07-10T18:05:57.853Z,1.10
2018-07-10T18:08:26.591Z,1.30
2018-07-10T18:10:55.081Z,1.00
2018-07-10T18:13:23.719Z,1.03
2018-07-10T18:15:52.328Z,1.07
2018-07-10T18:18:20.879Z,1.20
2018-07-10T18:20:49.523Z,1.33
2018-07-10T18:23:17.818Z,1.10
2018-07-10T18:25:46.955Z,1.33
2018-07-10T18:28:15.571Z,1.27
2018-07-10T18:30:44.843Z,1.17
2018-07-10T18:33:13.817Z,1.57
2018-07-10T18:35:42.408Z,1.13
2018-07-10T18:38:11.062Z,1.10
2018-07-10T18:40:39.264Z,1.27
2018-07-10T18:43:07.887Z,1.20
2018-07-10T18:45:36.518Z,1.10
2018-07-10T18:48:05.366Z,1.40
2018-07-10T18:50:34.055Z,1.30
2018-07-10T18:53:03.337Z,1.13
2018-07-10T18:55:31.992Z,1.10
2018-07-10T18:58:19.724Z,1.43
2018-07-10T19:00:58.326Z,1.33
2018-07-10T19:03:28.957Z,1.17
2018-07-10T19:05:59.137Z,1.40
2018-07-10T19:08:28.382Z,1.30
2018-07-10T19:10:57.029Z,1.20
2018-07-10T19:13:25.677Z,1.47
2018-07-10T19:15:54.428Z,1.40
2018-07-10T19:18:23.297Z,1.30
2018-07-10T19:22:01.697Z,3.73
2018-07-10T19:24:31.416Z,1.60
2018-07-10T19:27:00.738Z,1.40
2018-07-10T19:30:04.479Z,1.67
2018-07-10T19:32:33.379Z,1.60
2018-07-10T19:35:02.652Z,1.70
2018-07-10T19:37:32.249Z,1.90
2018-07-10T19:40:00.859Z,1.60
2018-07-10T19:42:30.401Z,1.60
2018-07-10T19:45:00.384Z,1.90
2018-07-10T19:47:28.660Z,2.03
2018-07-10T19:49:57.559Z,1.63
2018-07-10T19:52:26.506Z,1.80
2018-07-10T19:54:56.101Z,1.43
2018-07-10T19:57:34.950Z,2.00
2018-07-10T20:00:04.218Z,1.80
2018-07-10T20:02:33.306Z,2.03
2018-07-10T20:05:05.442Z,1.97
2018-07-10T20:07:34.773Z,1.83
2018-07-10T20:11:09.268Z,2.10
2018-07-10T20:13:44.261Z,2.03
2018-07-10T20:16:29.357Z,1.80
2018-07-10T20:19:13.048Z,2.17
2018-07-10T20:21:51.029Z,3.17
2018-07-10T20:24:20.482Z,2.13
2018-07-10T20:27:25.965Z,2.20
2018-07-10T20:29:59.881Z,2.07
2018-07-10T20:32:36.564Z,2.33
2018-07-10T20:35:09.945Z,1.93
2018-07-10T20:37:39.086Z,2.00
2018-07-10T20:40:07.715Z,2.03
2018-07-10T20:42:40.270Z,2.00
2018-07-10T20:45:09.575Z,2.90
2018-07-10T20:47:46.539Z,2.30
2018-07-10T20:50:19.430Z,2.50
2018-07-10T20:52:54.706Z,2.30
2018-07-10T20:55:25.525Z,2.33
2018-07-10T20:58:01.145Z,2.60
2018-07-10T21:00:36.431Z,2.50
2018-07-10T21:04:14.400Z,2.50
2018-07-10T21:07:04.389Z,2.43
2018-07-10T21:09:41.652Z,2.70
2018-07-10T21:12:17.476Z,2.63
2018-07-10T21:14:59.984Z,2.67
2018-07-10T21:17:33.721Z,2.80
2018-07-10T21:20:05.066Z,2.70
2018-07-10T21:22:38.843Z,3.30
2018-07-10T21:25:13.835Z,3.00
2018-07-10T21:28:48.728Z,3.13
2018-07-10T21:31:23.946Z,4.27
2018-07-10T21:34:11.721Z,6.43
2018-07-10T21:37:01.962Z,4.03
2018-07-10T21:40:42.600Z,2.80
2018-07-10T21:43:20.914Z,3.20
2018-07-10T21:46:58.665Z,4.43
2018-07-10T21:49:39.413Z,4.40
2018-07-10T21:52:08.014Z,5.67
2018-07-10T21:54:36.662Z,3.70
2018-07-10T21:57:05.965Z,3.10
2018-07-10T21:59:38.008Z,2.80
2018-07-10T22:02:08.196Z,3.70
2018-07-10T22:04:38.510Z,2.60
2018-07-10T22:07:10.908Z,2.93
2018-07-10T22:09:40.281Z,3.27
2018-07-10T22:12:11.047Z,3.40
2018-07-10T22:14:39.851Z,3.10
2018-07-10T22:17:09.529Z,3.97
2018-07-10T22:19:41.012Z,3.67
2018-07-10T22:22:09.649Z,3.23
2018-07-10T22:24:39.358Z,3.33
2018-07-10T22:27:07.991Z,3.47
2018-07-10T22:29:41.633Z,3.23
2018-07-10T22:32:16.146Z,3.60
2018-07-10T22:34:44.855Z,3.70
2018-07-10T22:37:14.797Z,3.10
2018-07-10T22:39:44.080Z,3.10
2018-07-10T22:42:12.760Z,3.27
2018-07-10T22:44:45.075Z,3.00
2018-07-10T22:47:13.711Z,3.23
2018-07-10T22:49:42.311Z,3.13
2018-07-10T22:52:10.945Z,3.10
2018-07-10T22:54:39.161Z,4.03
2018-07-10T22:57:12.307Z,5.50
2018-07-10T22:59:42.908Z,3.97
2018-07-10T23:02:11.521Z,4.47
2018-07-10T23:04:40.466Z,4.53
2018-07-10T23:07:09.912Z,3.57
2018-07-10T23:09:38.538Z,3.60
2018-07-10T23:12:07.533Z,4.10
2018-07-10T23:14:36.175Z,4.13
2018-07-10T23:17:04.765Z,3.37
2018-07-10T23:19:33.565Z,3.70
2018-07-10T23:22:01.801Z,4.10
2018-07-10T23:24:31.598Z,3.83
2018-07-10T23:27:00.198Z,4.57
2018-07-10T23:29:36.770Z,5.20
2018-07-10T23:32:07.083Z,4.07
2018-07-10T23:34:35.754Z,3.97
2018-07-10T23:37:07.198Z,4.30
2018-07-10T23:39:43.418Z,4.53
2018-07-10T23:42:25.816Z,4.20
2018-07-10T23:44:55.386Z,3.97
2018-07-10T23:47:34.158Z,4.20
2018-07-10T23:50:12.866Z,4.40
2018-07-10T23:53:53.845Z,4.53
2018-07-10T23:56:22.934Z,4.47
2018-07-10T23:58:51.732Z,4.20
